Hodgenville, Kentucky
Current Conditions -  °F | °C
As of 4:48 AM on Monday 24 Nov 2014 (Local Time) from KFTK Reporting Station
Broken Clouds Broken Clouds  
Wind Chill: 61°   Ceiling: 3400
Heat Index: 61°   Visibility: 10mi
Dew Point: 55°   Wind: 16mph
Humidity: 82%   Direction: 180°S
Pressure: 29.34"   Gusts: 26mph
Location:  37.57°N, 85.74°W
Report Text: KFTK 240948Z AUTO 18014G23KT 10SM SCT025 BKN034 BKN050 BKN070 16/13 A2934 RMK AO2
Loading
Personal Weather Stations






























Interactive Weather Map New forecast layout! Learn more

10-Day Weather Forecast

Advertisements
Track Severe Weather on mobile